Time;durP1;ratioP1;P1;durP2;ratioP2;P2;SDS_P1;SDS_P2;PMS_P1;PMS_P2;Temp;Humidity;BMP_temperature;BMP_pressure;BME280_temperature;BME280_humidity;BME280_pressure;Samples;Min_cycle;Max_cycle;Signal;HPM_P1;HPM_P2
2020/12/20 00:02:20;;;;;;;80.85;41.53;;;-0.80;99.90;;;;;;5194421;27;20085;-89
2020/12/20 00:05:11;;;;;;;84.45;42.45;;;-0.80;99.90;;;;;;5179936;27;20090;-90
2020/12/20 00:07:51;;;;;;;82.90;41.47;;;-0.80;99.90;;;;;;5170455;27;20101;-89
2020/12/20 00:10:45;;;;;;;76.12;38.63;;;-0.80;99.90;;;;;;5165386;27;20135;-89
2020/12/20 00:13:27;;;;;;;84.20;42.33;;;-0.80;99.90;;;;;;5204171;27;20086;-89
2020/12/20 00:16:19;;;;;;;84.82;39.33;;;-0.80;99.90;;;;;;5175684;27;20125;-89
2020/12/20 00:18:58;;;;;;;79.62;40.60;;;-0.80;99.90;;;;;;5217678;27;20117;-89
2020/12/20 00:22:10;;;;;;;75.00;36.45;;;-0.80;99.90;;;;;;5173140;27;20091;-89
2020/12/20 00:24:49;;;;;;;71.50;35.10;;;-0.90;99.90;;;;;;5216198;27;20083;-89
2020/12/20 00:27:44;;;;;;;80.70;37.25;;;-0.90;99.90;;;;;;5238013;27;20112;-89
2020/12/20 00:30:23;;;;;;;78.87;40.45;;;-0.90;99.90;;;;;;5233504;27;20462;-89
2020/12/20 00:33:15;;;;;;;86.43;43.55;;;-0.90;99.90;;;;;;5200952;27;20155;-88
2020/12/20 00:35:54;;;;;;;82.55;39.67;;;-0.90;99.90;;;;;;5185792;27;20113;-88
2020/12/20 00:38:47;;;;;;;78.07;37.28;;;-0.90;99.90;;;;;;5184369;27;20130;-91
2020/12/20 00:41:38;;;;;;;77.22;37.88;;;-0.90;99.90;;;;;;5180016;27;20117;-91
2020/12/20 00:44:33;;;;;;;73.03;37.40;;;-0.90;99.90;;;;;;5186981;27;20156;-89
2020/12/20 00:47:25;;;;;;;72.47;37.65;;;-0.90;99.90;;;;;;5180433;27;20355;-89
2020/12/20 00:50:17;;;;;;;78.22;36.80;;;-0.90;99.90;;;;;;5190004;27;20171;-90
2020/12/20 00:53:08;;;;;;;70.75;35.20;;;-0.90;99.90;;;;;;5181473;27;20105;-90
2020/12/20 00:56:02;;;;;;;54.10;27.23;;;-0.90;99.90;;;;;;5201866;27;20091;-89
2020/12/20 00:58:57;;;;;;;70.35;36.90;;;-0.90;99.90;;;;;;5198289;27;20105;-90
2020/12/20 01:01:58;;;;;;;72.62;36.33;;;-0.90;99.90;;;;;;5155720;27;20179;-89
2020/12/20 01:04:49;;;;;;;69.97;35.90;;;-0.90;99.90;;;;;;5174540;27;20147;-89
2020/12/20 01:07:43;;;;;;;77.93;38.00;;;-0.90;99.90;;;;;;5190269;27;20150;-89
2020/12/20 01:10:34;;;;;;;79.60;39.05;;;-0.90;99.90;;;;;;5199252;27;20090;-89
2020/12/20 01:13:29;;;;;;;73.97;35.55;;;-0.90;99.90;;;;;;5188433;27;20479;-89
2020/12/20 01:16:25;;;;;;;69.43;35.88;;;-0.90;99.90;;;;;;5204312;27;20102;-90
2020/12/20 01:19:17;;;;;;;68.25;32.22;;;-0.90;99.90;;;;;;5165720;27;20163;-89
2020/12/20 01:22:08;;;;;;;64.75;32.90;;;-1.00;99.90;;;;;;5198302;27;20109;-89
2020/12/20 01:25:00;;;;;;;62.90;32.92;;;-1.00;99.90;;;;;;5187188;27;20091;-91
2020/12/20 01:27:54;;;;;;;64.07;30.88;;;-1.00;99.90;;;;;;5210444;27;20136;-90
2020/12/20 01:30:46;;;;;;;62.03;29.80;;;-1.00;99.90;;;;;;5182903;27;20091;-89
2020/12/20 01:33:41;;;;;;;62.53;30.70;;;-1.00;99.90;;;;;;5190494;27;20109;-89
2020/12/20 01:36:36;;;;;;;67.82;32.13;;;-0.90;99.90;;;;;;5176954;27;20090;-90
2020/12/20 01:39:30;;;;;;;59.92;31.00;;;-1.00;99.90;;;;;;5203951;27;20121;-89
2020/12/20 01:42:24;;;;;;;57.03;28.17;;;-1.00;99.90;;;;;;5200365;27;20087;-89
2020/12/20 01:45:44;;;;;;;36.38;20.10;;;-1.00;99.90;;;;;;5179280;27;20091;-89
2020/12/20 01:48:41;;;;;;;56.83;29.67;;;-1.00;99.90;;;;;;5212809;27;20113;-89
2020/12/20 01:51:35;;;;;;;60.67;29.10;;;-1.00;99.90;;;;;;5156791;27;20166;-89
2020/12/20 01:54:29;;;;;;;50.25;26.70;;;-1.10;99.90;;;;;;5135520;27;20095;-89
2020/12/20 01:57:22;;;;;;;48.67;25.35;;;-1.10;99.90;;;;;;5216756;27;20098;-91
2020/12/20 02:00:16;;;;;;;56.88;27.98;;;-1.10;99.90;;;;;;5179950;27;20083;-89
2020/12/20 02:03:08;;;;;;;42.00;22.95;;;-1.20;99.90;;;;;;5164349;27;20117;-89
2020/12/20 02:05:49;;;;;;;48.95;25.60;;;-1.20;99.90;;;;;;5176203;27;20101;-90
2020/12/20 02:08:44;;;;;;;41.90;21.15;;;-1.20;99.90;;;;;;5191024;27;20099;-89
2020/12/20 02:11:41;;;;;;;39.40;19.30;;;-1.20;99.90;;;;;;5202030;27;20359;-89
2020/12/20 02:14:33;;;;;;;49.28;24.02;;;-1.20;99.90;;;;;;5139816;27;20109;-89
2020/12/20 02:17:27;;;;;;;67.60;30.27;;;-1.30;99.90;;;;;;5171257;27;20151;-89
2020/12/20 02:20:23;;;;;;;73.65;32.30;;;-1.20;99.90;;;;;;5190903;27;20095;-89
2020/12/20 02:23:17;;;;;;;84.00;32.90;;;-1.20;99.90;;;;;;5179962;27;20108;-89
2020/12/20 02:26:10;;;;;;;77.50;32.13;;;-1.20;99.90;;;;;;5192135;27;20150;-89
2020/12/20 02:29:04;;;;;;;72.65;30.60;;;-1.20;99.90;;;;;;5175023;27;20103;-89
2020/12/20 02:31:58;;;;;;;67.00;31.30;;;-1.30;99.90;;;;;;5140153;27;20091;-89
2020/12/20 02:34:52;;;;;;;58.03;27.58;;;-1.30;99.90;;;;;;5151850;27;20172;-89
2020/12/20 02:37:46;;;;;;;62.00;27.77;;;-1.30;99.90;;;;;;5165968;27;20142;-89
2020/12/20 02:40:39;;;;;;;58.33;27.55;;;-1.30;99.90;;;;;;5161187;27;20102;-89
2020/12/20 02:43:34;;;;;;;57.28;27.65;;;-1.30;99.90;;;;;;5166451;27;20142;-89
2020/12/20 02:46:26;;;;;;;47.35;24.15;;;-1.30;99.90;;;;;;5217367;27;20089;-89
2020/12/20 02:49:20;;;;;;;50.78;24.80;;;-1.30;99.90;;;;;;5179012;27;20091;-89
2020/12/20 02:52:14;;;;;;;52.15;24.52;;;-1.30;99.90;;;;;;5201149;27;20113;-89
2020/12/20 02:55:10;;;;;;;52.40;25.60;;;-1.30;99.90;;;;;;5183257;27;20171;-88
2020/12/20 02:58:02;;;;;;;46.03;23.35;;;-1.30;99.90;;;;;;5149734;27;20102;-89
2020/12/20 03:00:56;;;;;;;50.28;24.20;;;-1.30;99.90;;;;;;5171893;27;20095;-89
2020/12/20 03:03:50;;;;;;;51.25;23.55;;;-1.20;99.90;;;;;;5124093;28;20087;-88
2020/12/20 03:06:41;;;;;;;44.22;22.15;;;-1.30;99.90;;;;;;5159641;27;20091;-89
2020/12/20 03:09:35;;;;;;;45.50;23.48;;;-1.30;99.90;;;;;;5204903;27;20090;-88
2020/12/20 03:12:29;;;;;;;47.85;23.58;;;-1.30;99.90;;;;;;4854592;27;20232;-90
2020/12/20 03:15:22;;;;;;;41.35;21.40;;;-1.30;99.90;;;;;;5173536;27;20130;-90
2020/12/20 03:18:16;;;;;;;41.45;21.83;;;-1.40;99.90;;;;;;5233866;27;20108;-89
2020/12/20 03:21:10;;;;;;;44.55;23.30;;;-1.40;99.90;;;;;;5227177;27;20101;-89
2020/12/20 03:24:04;;;;;;;47.33;22.98;;;-1.30;99.90;;;;;;5180270;27;20186;-89
2020/12/20 03:26:58;;;;;;;45.33;20.95;;;-1.40;99.90;;;;;;5141401;27;20130;-89
2020/12/20 03:29:53;;;;;;;43.78;21.65;;;-1.30;99.90;;;;;;5151668;27;20087;-89
2020/12/20 03:32:47;;;;;;;46.35;22.48;;;-1.40;99.90;;;;;;5176798;27;20090;-89
2020/12/20 03:35:43;;;;;;;37.63;19.70;;;-1.40;99.90;;;;;;5192972;27;20087;-89
2020/12/20 03:38:37;;;;;;;42.55;22.85;;;-1.30;99.90;;;;;;5199165;27;20102;-88
2020/12/20 03:41:31;;;;;;;44.67;23.58;;;-1.30;99.90;;;;;;5167014;27;20090;-89
2020/12/20 03:44:22;;;;;;;44.63;21.58;;;-1.30;99.90;;;;;;5149141;27;20079;-89
2020/12/20 03:47:14;;;;;;;45.88;22.52;;;-1.30;99.90;;;;;;5146040;27;20091;-89
2020/12/20 03:50:08;;;;;;;48.13;22.17;;;-1.30;99.90;;;;;;5187168;27;20090;-89
2020/12/20 03:53:00;;;;;;;44.65;22.65;;;-1.30;99.90;;;;;;5155157;27;20106;-88
2020/12/20 03:55:58;;;;;;;48.28;23.92;;;-1.30;99.90;;;;;;5175063;27;20091;-88
2020/12/20 03:58:49;;;;;;;50.65;24.83;;;-1.30;99.90;;;;;;5178261;27;20174;-88
2020/12/20 04:01:42;;;;;;;49.92;23.73;;;-1.30;99.90;;;;;;5155156;27;20106;-89
2020/12/20 04:04:35;;;;;;;54.00;25.25;;;-1.40;99.90;;;;;;5217586;27;20079;-88
2020/12/20 04:07:32;;;;;;;43.75;21.15;;;-1.30;99.90;;;;;;5174254;27;20106;-88
2020/12/20 04:10:26;;;;;;;49.92;24.25;;;-1.30;99.90;;;;;;5212896;27;20083;-89
2020/12/20 04:13:08;;;;;;;46.03;24.75;;;-1.30;99.90;;;;;;5147476;27;20095;-89
2020/12/20 04:16:13;;;;;;;55.67;26.92;;;-1.30;99.90;;;;;;5217520;27;20086;-89
2020/12/20 04:19:07;;;;;;;44.20;24.48;;;-1.30;99.90;;;;;;5197826;27;20110;-88
2020/12/20 04:22:04;;;;;;;50.65;25.15;;;-1.30;99.90;;;;;;5162484;27;20109;-88
2020/12/20 04:24:58;;;;;;;49.45;24.83;;;-1.30;99.90;;;;;;5176026;27;20091;-88
2020/12/20 04:27:50;;;;;;;52.60;24.98;;;-1.30;99.90;;;;;;5172104;27;20122;-89
2020/12/20 04:30:51;;;;;;;53.28;26.67;;;-1.30;99.90;;;;;;5148139;27;20090;-90
2020/12/20 04:33:46;;;;;;;51.53;26.62;;;-1.30;99.90;;;;;;5160341;27;20174;-88
2020/12/20 04:36:37;;;;;;;64.05;28.05;;;-1.30;99.90;;;;;;5184717;27;20166;-90
2020/12/20 04:39:32;;;;;;;55.25;27.70;;;-1.30;99.90;;;;;;5128453;27;20143;-89
2020/12/20 04:42:31;;;;;;;56.15;27.80;;;-1.30;99.90;;;;;;5174819;27;20090;-87
2020/12/20 04:45:28;;;;;;;58.05;28.33;;;-1.30;99.90;;;;;;5130453;27;20146;-89
2020/12/20 04:48:24;;;;;;;63.45;28.15;;;-1.40;99.90;;;;;;5131312;27;20087;-90
2020/12/20 04:51:21;;;;;;;58.65;27.95;;;-1.30;99.90;;;;;;5182362;27;20156;-88
2020/12/20 04:54:18;;;;;;;51.85;26.73;;;-1.40;99.90;;;;;;5214875;27;20078;-90
2020/12/20 04:57:09;;;;;;;67.15;34.72;;;-1.30;99.90;;;;;;5181278;27;20090;-88
2020/12/20 05:00:06;;;;;;;51.92;26.70;;;-1.40;99.90;;;;;;5198967;27;20133;-87
2020/12/20 05:03:03;;;;;;;58.13;28.62;;;-1.30;99.90;;;;;;5157707;27;20110;-89
2020/12/20 05:06:00;;;;;;;60.35;30.02;;;-1.30;99.90;;;;;;5159517;27;20174;-89
2020/12/20 05:09:08;;;;;;;61.37;30.70;;;-1.30;99.90;;;;;;5170831;27;20110;-89
2020/12/20 05:11:59;;;;;;;63.60;32.05;;;-1.30;99.90;;;;;;5176007;27;20105;-88
2020/12/20 05:14:51;;;;;;;99.60;58.38;;;-1.30;99.90;;;;;;5182933;27;20105;-89
2020/12/20 05:17:45;;;;;;;69.28;41.53;;;-1.30;99.90;;;;;;5197039;27;20090;-89
2020/12/20 05:20:46;;;;;;;65.55;38.50;;;-1.30;99.90;;;;;;5205876;27;20094;-89
2020/12/20 05:23:43;;;;;;;61.45;32.65;;;-1.30;99.90;;;;;;5211022;27;20093;-88
2020/12/20 05:26:41;;;;;;;52.35;26.73;;;-1.40;99.90;;;;;;5204711;27;20481;-89
2020/12/20 05:29:32;;;;;;;56.75;28.30;;;-1.30;99.90;;;;;;5200261;27;20149;-89
2020/12/20 05:32:30;;;;;;;45.85;24.85;;;-1.40;99.90;;;;;;5216425;27;20501;-89
2020/12/20 05:35:14;;;;;;;48.75;25.12;;;-1.40;99.90;;;;;;5200513;27;20514;-89
2020/12/20 05:38:11;;;;;;;49.63;26.75;;;-1.40;99.90;;;;;;5211639;27;20094;-89
2020/12/20 05:41:07;;;;;;;125.38;59.08;;;-1.40;99.90;;;;;;5197265;27;20095;-89
2020/12/20 05:44:19;;;;;;;157.70;74.10;;;-1.40;99.90;;;;;;5191557;27;20528;-89
2020/12/20 05:47:10;;;;;;;125.15;55.63;;;-1.40;99.90;;;;;;5214104;27;20142;-89
2020/12/20 05:50:05;;;;;;;118.15;55.53;;;-1.40;99.90;;;;;;5240003;27;20086;-89
2020/12/20 05:53:03;;;;;;;125.30;55.55;;;-1.40;99.90;;;;;;5209569;27;20173;-89
2020/12/20 05:56:00;;;;;;;129.43;57.60;;;-1.50;99.90;;;;;;5203331;27;20090;-89
2020/12/20 05:58:39;;;;;;;83.25;40.65;;;-1.50;99.90;;;;;;5185274;27;20091;-89
2020/12/20 06:01:36;;;;;;;58.57;27.37;;;-1.50;99.90;;;;;;5173792;27;20113;-89
2020/12/20 06:04:30;;;;;;;55.72;28.05;;;-1.60;99.90;;;;;;5166767;27;20090;-88
2020/12/20 06:07:13;;;;;;;49.15;24.48;;;-1.60;99.90;;;;;;5200024;27;20146;-90
2020/12/20 06:10:10;;;;;;;41.40;22.17;;;-1.60;99.90;;;;;;5199657;27;20170;-89
2020/12/20 06:13:09;;;;;;;38.28;20.30;;;-1.60;99.90;;;;;;5247099;27;20106;-89
2020/12/20 06:16:00;;;;;;;32.25;17.62;;;-1.60;99.90;;;;;;5207265;27;20105;-88
2020/12/20 06:18:49;;;;;;;40.53;21.15;;;-1.70;99.90;;;;;;5181997;27;20105;-88
2020/12/20 06:22:02;;;;;;;33.67;17.10;;;-1.70;99.90;;;;;;5210588;27;20090;-88
2020/12/20 06:25:06;;;;;;;35.90;20.52;;;-1.70;99.90;;;;;;5197241;27;20153;-89
2020/12/20 06:28:04;;;;;;;44.40;22.25;;;-1.80;99.90;;;;;;5199179;27;20138;-89
2020/12/20 06:30:46;;;;;;;50.92;24.85;;;-1.70;99.90;;;;;;5207771;27;20521;-89
2020/12/20 06:33:48;;;;;;;46.03;23.58;;;-1.80;99.90;;;;;;5201123;27;20094;-89
2020/12/20 06:36:31;;;;;;;41.83;22.33;;;-1.80;99.90;;;;;;5206859;27;20090;-89
2020/12/20 06:39:40;;;;;;;51.83;24.52;;;-1.80;99.90;;;;;;5233779;27;20133;-88
2020/12/20 06:42:37;;;;;;;31.08;16.10;;;-1.80;99.90;;;;;;5252349;27;20085;-89
2020/12/20 06:45:30;;;;;;;37.92;19.95;;;-1.80;99.90;;;;;;5173225;27;20125;-88
2020/12/20 06:48:13;;;;;;;41.10;21.35;;;-1.80;99.90;;;;;;5247622;27;20104;-89
2020/12/20 06:51:07;;;;;;;50.08;25.50;;;-1.80;99.90;;;;;;5179670;27;20090;-89
2020/12/20 06:53:51;;;;;;;49.05;24.50;;;-1.90;99.90;;;;;;5205071;27;20108;-88
2020/12/20 06:56:48;;;;;;;50.92;26.77;;;-1.90;99.90;;;;;;5193237;27;20090;-89
2020/12/20 06:59:43;;;;;;;47.40;24.73;;;-1.90;99.90;;;;;;5238794;27;20097;-90
2020/12/20 07:02:44;;;;;;;56.10;28.65;;;-1.90;99.90;;;;;;5207766;27;20082;-89
2020/12/20 07:05:40;;;;;;;56.15;27.37;;;-1.90;99.90;;;;;;5206478;27;20093;-89
2020/12/20 07:08:38;;;;;;;63.33;28.90;;;-1.90;99.90;;;;;;5242592;27;20504;-88
2020/12/20 07:11:21;;;;;;;60.78;27.62;;;-1.90;99.90;;;;;;5221597;27;20090;-88
2020/12/20 07:14:22;;;;;;;59.28;27.77;;;-1.90;99.90;;;;;;5225324;27;20097;-89
2020/12/20 07:17:01;;;;;;;42.05;22.40;;;-1.80;99.90;;;;;;5221996;27;20097;-89
2020/12/20 07:20:11;;;;;;;43.90;22.70;;;-1.80;99.90;;;;;;5212579;27;20093;-89
2020/12/20 07:22:50;;;;;;;49.17;24.27;;;-1.80;99.90;;;;;;5215805;27;20094;-89
2020/12/20 07:25:52;;;;;;;44.67;23.12;;;-1.60;99.90;;;;;;5223198;27;20086;-89
2020/12/20 07:28:50;;;;;;;42.62;21.48;;;-1.20;99.90;;;;;;5214135;27;20471;-89
2020/12/20 07:31:49;;;;;;;36.57;19.60;;;-0.70;99.90;;;;;;4858636;27;20099;-89
2020/12/20 07:34:31;;;;;;;31.73;19.25;;;-0.20;99.90;;;;;;5224627;27;20130;-89
2020/12/20 07:37:28;;;;;;;34.63;20.05;;;0.30;99.90;;;;;;5221749;27;20079;-88
2020/12/20 07:40:07;;;;;;;33.80;19.33;;;0.90;99.90;;;;;;5181115;27;20113;-89
2020/12/20 07:43:01;;;;;;;34.00;17.67;;;1.50;99.90;;;;;;5220761;27;20082;-87
2020/12/20 07:46:01;;;;;;;32.90;18.83;;;1.90;99.90;;;;;;5220302;27;20086;-87
2020/12/20 07:48:52;;;;;;;30.80;17.70;;;2.60;99.90;;;;;;5190140;27;20094;-88
2020/12/20 07:51:31;;;;;;;29.60;18.52;;;3.20;99.90;;;;;;5195751;27;20150;-87
2020/12/20 07:54:23;;;;;;;34.63;19.55;;;3.50;99.90;;;;;;5195472;27;20094;-88
2020/12/20 07:57:05;;;;;;;32.50;17.92;;;4.00;99.90;;;;;;5196845;27;20090;-88
2020/12/20 08:00:01;;;;;;;28.62;17.33;;;4.30;99.90;;;;;;5213199;27;20162;-88
2020/12/20 08:02:53;;;;;;;32.75;18.55;;;4.60;99.90;;;;;;5174983;27;20090;-88
2020/12/20 08:09:21;;;;;;;35.70;20.73;;;5.00;99.90;;;;;;5220325;27;20109;-88
2020/12/20 08:12:18;;;;;;;36.15;21.70;;;4.70;99.90;;;;;;5224508;27;20086;-87
2020/12/20 08:15:07;;;;;;;38.42;22.50;;;4.30;99.90;;;;;;5221703;27;20430;-88
2020/12/20 08:18:02;;;;;;;41.88;24.63;;;4.20;99.90;;;;;;5182034;27;20094;-88
2020/12/20 08:20:41;;;;;;;41.25;23.50;;;4.40;99.90;;;;;;5211592;27;20153;-87
2020/12/20 08:23:35;;;;;;;42.42;24.20;;;4.80;99.90;;;;;;5189554;27;20097;-88
2020/12/20 08:26:34;;;;;;;43.17;24.67;;;5.10;99.90;;;;;;5203682;27;20086;-87
2020/12/20 08:29:28;;;;;;;48.20;26.60;;;5.30;99.90;;;;;;5205367;27;20090;-88
2020/12/20 08:32:12;;;;;;;50.50;27.75;;;5.60;99.90;;;;;;5205079;27;20098;-88
2020/12/20 08:35:12;;;;;;;52.72;29.00;;;5.60;99.90;;;;;;5215220;27;20094;-88
2020/12/20 08:37:55;;;;;;;53.20;27.27;;;5.90;99.90;;;;;;5196286;27;20419;-86
2020/12/20 08:40:49;;;;;;;53.00;29.37;;;6.10;99.90;;;;;;5220937;27;20090;-89
2020/12/20 08:43:28;;;;;;;56.75;30.17;;;6.20;99.90;;;;;;5199952;27;20105;-86
2020/12/20 08:46:32;;;;;;;49.35;29.25;;;6.50;99.90;;;;;;5181303;27;20086;-85
2020/12/20 08:49:12;;;;;;;51.25;27.98;;;6.60;99.90;;;;;;5220638;27;20102;-88
2020/12/20 08:52:12;;;;;;;53.92;29.08;;;6.70;99.90;;;;;;5153474;27;20367;-88
2020/12/20 08:54:59;;;;;;;44.28;28.42;;;6.70;99.90;;;;;;5212514;27;20094;-88
2020/12/20 08:58:02;;;;;;;46.45;27.17;;;6.70;99.90;;;;;;5192251;27;20086;-87
2020/12/20 09:00:44;;;;;;;45.47;27.37;;;6.70;99.90;;;;;;5197276;27;20090;-89
2020/12/20 09:03:41;;;;;;;40.00;25.08;;;6.70;99.90;;;;;;5186968;27;20150;-88
2020/12/20 09:06:20;;;;;;;40.25;24.83;;;6.80;99.90;;;;;;5205039;27;20146;-87
2020/12/20 09:09:15;;;;;;;39.88;22.48;;;6.80;99.90;;;;;;5188299;27;20104;-88
2020/12/20 09:11:53;;;;;;;42.35;26.15;;;6.70;99.90;;;;;;5194149;27;20160;-86
2020/12/20 09:15:00;;;;;;;43.90;25.77;;;6.60;99.90;;;;;;5198531;27;20102;-88
2020/12/20 09:17:40;;;;;;;40.35;25.73;;;6.70;99.90;;;;;;5228780;27;20097;-89
2020/12/20 09:20:31;;;;;;;45.63;27.48;;;6.80;99.90;;;;;;5213924;27;20485;-86
2020/12/20 09:23:17;;;;;;;43.78;27.40;;;7.00;99.90;;;;;;5184204;27;20420;-87
2020/12/20 09:26:47;;;;;;;54.50;32.67;;;7.00;99.90;;;;;;5188738;27;20098;-88
2020/12/20 09:29:29;;;;;;;70.65;43.90;;;7.20;99.90;;;;;;5186129;27;20113;-87
2020/12/20 09:32:21;;;;;;;81.40;47.72;;;7.30;99.90;;;;;;5226146;27;20089;-86
2020/12/20 09:35:07;;;;;;;65.37;38.95;;;7.30;99.90;;;;;;5206267;27;20170;-88
2020/12/20 09:38:06;;;;;;;52.83;33.85;;;7.50;99.90;;;;;;5207297;27;20093;-88
2020/12/20 09:41:12;;;;;;;37.45;21.50;;;7.70;99.90;;;;;;5204480;27;20150;-87
2020/12/20 09:44:08;;;;;;;53.45;31.02;;;7.90;99.90;;;;;;5196919;27;20157;-86
2020/12/20 09:46:48;;;;;;;50.35;31.10;;;8.10;99.90;;;;;;5212092;27;20101;-87
2020/12/20 09:49:43;;;;;;;37.60;25.12;;;8.40;99.90;;;;;;5214461;27;20097;-87
2020/12/20 09:52:22;;;;;;;34.70;21.62;;;8.50;99.90;;;;;;5183253;27;20146;-88
2020/12/20 09:55:17;;;;;;;33.60;21.08;;;8.60;99.90;;;;;;5216767;27;20089;-87
2020/12/20 09:57:57;;;;;;;32.97;21.80;;;8.80;99.90;;;;;;5189661;27;20106;-89
2020/12/20 10:00:51;;;;;;;35.40;22.62;;;8.80;99.90;;;;;;5196188;27;20106;-89
2020/12/20 10:03:48;;;;;;;33.72;21.17;;;8.70;99.90;;;;;;5212720;27;20099;-89
2020/12/20 10:06:26;;;;;;;34.90;21.83;;;8.60;99.90;;;;;;5205090;27;20098;-89
2020/12/20 10:09:17;;;;;;;35.85;23.33;;;8.50;99.90;;;;;;5204109;27;20090;-87
2020/12/20 10:11:56;;;;;;;34.38;20.52;;;8.50;99.90;;;;;;5221395;27;20089;-87
2020/12/20 10:14:49;;;;;;;31.35;20.67;;;8.50;99.90;;;;;;5188699;27;20106;-87
2020/12/20 10:17:28;;;;;;;34.97;23.85;;;8.30;99.90;;;;;;5182628;27;20094;-90
2020/12/20 10:20:22;;;;;;;33.55;20.40;;;8.20;99.90;;;;;;5153070;27;20114;-89
2020/12/20 10:23:01;;;;;;;35.08;21.00;;;8.10;99.90;;;;;;5178574;27;20095;-88
2020/12/20 10:25:54;;;;;;;31.20;20.00;;;7.90;99.90;;;;;;5218997;27;20087;-90
2020/12/20 10:28:34;;;;;;;34.15;21.50;;;7.90;99.90;;;;;;5200670;27;20146;-89
2020/12/20 10:31:31;;;;;;;34.35;20.60;;;7.80;99.90;;;;;;5178890;27;20158;-89
2020/12/20 10:34:10;;;;;;;32.50;18.70;;;7.80;99.90;;;;;;5198059;27;20105;-89
2020/12/20 10:37:11;;;;;;;27.33;17.17;;;7.90;99.90;;;;;;5135984;27;20463;-88
2020/12/20 10:39:50;;;;;;;26.85;16.98;;;7.90;99.90;;;;;;5137673;28;20088;-90
2020/12/20 10:42:47;;;;;;;22.58;14.50;;;7.80;99.90;;;;;;5174980;27;20094;-90
2020/12/20 10:49:09;;;;;;;36.40;19.23;;;7.40;99.90;;;;;;5179769;27;20144;-88
2020/12/20 10:52:03;;;;;;;27.77;16.30;;;7.30;99.90;;;;;;5210214;27;20104;-88
2020/12/20 10:54:43;;;;;;;26.58;15.68;;;7.30;99.90;;;;;;5227829;27;20093;-89
2020/12/20 10:57:43;;;;;;;31.02;17.17;;;7.20;99.90;;;;;;5195133;27;20167;-88
2020/12/20 11:00:26;;;;;;;30.60;18.35;;;7.20;99.90;;;;;;5223145;27;20142;-88
2020/12/20 11:03:24;;;;;;;29.08;17.25;;;7.10;99.90;;;;;;5181962;27;20087;-88
2020/12/20 11:06:04;;;;;;;30.17;17.37;;;7.10;99.90;;;;;;5210138;27;20086;-89
2020/12/20 11:08:56;;;;;;;24.73;16.15;;;7.00;99.90;;;;;;5215986;27;20104;-89
2020/12/20 11:11:37;;;;;;;25.45;16.75;;;6.90;99.90;;;;;;5262033;27;20089;-88
2020/12/20 11:14:36;;;;;;;22.40;13.95;;;6.80;99.90;;;;;;5188190;27;20130;-89
2020/12/20 11:17:15;;;;;;;18.62;11.25;;;6.70;99.90;;;;;;5185962;27;20082;-88
2020/12/20 11:20:07;;;;;;;18.52;10.35;;;6.60;99.90;;;;;;5214255;27;20086;-88
2020/12/20 11:22:46;;;;;;;15.63;9.32;;;6.50;99.90;;;;;;5216022;27;20091;-90
2020/12/20 11:25:41;;;;;;;14.90;9.07;;;6.30;99.90;;;;;;5204335;27;20087;-87
2020/12/20 11:28:20;;;;;;;18.02;10.63;;;6.20;99.90;;;;;;5214097;27;20149;-88
2020/12/20 11:31:15;;;;;;;15.68;10.00;;;6.10;99.90;;;;;;5172613;27;20086;-89
2020/12/20 11:33:57;;;;;;;18.45;10.27;;;6.10;99.90;;;;;;5159928;27;20642;-88
2020/12/20 11:36:55;;;;;;;15.30;8.57;;;6.00;99.90;;;;;;5204151;27;20372;-89
2020/12/20 11:39:38;;;;;;;17.27;9.75;;;6.00;99.90;;;;;;5201265;27;20375;-88
2020/12/20 11:42:31;;;;;;;15.40;9.02;;;6.00;99.90;;;;;;5164918;27;20094;-88
2020/12/20 11:45:10;;;;;;;14.52;8.65;;;6.00;99.90;;;;;;5198933;27;20114;-89
2020/12/20 11:48:01;;;;;;;15.23;8.60;;;5.90;99.90;;;;;;5223088;27;20125;-88
2020/12/20 11:50:40;;;;;;;14.90;8.70;;;5.80;99.90;;;;;;5243320;27;20492;-89
2020/12/20 11:53:37;;;;;;;15.52;8.70;;;5.80;99.90;;;;;;5187805;27;20098;-89
2020/12/20 11:56:19;;;;;;;13.77;8.80;;;5.70;99.90;;;;;;5262840;27;20113;-89
2020/12/20 11:59:14;;;;;;;14.10;9.20;;;5.70;99.90;;;;;;5176649;27;20094;-88
2020/12/20 12:01:58;;;;;;;12.32;8.50;;;5.70;99.90;;;;;;5231850;27;20121;-88
2020/12/20 12:04:50;;;;;;;13.65;8.48;;;5.70;99.90;;;;;;5179113;27;20510;-88
2020/12/20 12:07:30;;;;;;;13.70;8.35;;;5.60;99.90;;;;;;5216158;27;20109;-89
2020/12/20 12:10:24;;;;;;;13.15;8.13;;;5.60;99.90;;;;;;5192961;27;20094;-88
2020/12/20 12:13:06;;;;;;;13.18;8.60;;;5.60;99.90;;;;;;5185252;27;20106;-88
2020/12/20 12:19:42;;;;;;;17.92;9.85;;;5.60;99.90;;;;;;5250558;27;20137;-90
2020/12/20 12:22:37;;;;;;;15.52;9.57;;;5.70;99.90;;;;;;5210694;27;20166;-89
2020/12/20 12:25:17;;;;;;;15.75;7.93;;;5.60;99.90;;;;;;4881342;27;9673674;-90
2020/12/20 12:28:11;;;;;;;12.73;8.20;;;5.60;99.90;;;;;;5235510;27;20107;-91
2020/12/20 12:30:50;;;;;;;14.25;8.00;;;5.60;99.90;;;;;;5191326;27;20209;-91
2020/12/20 12:33:44;;;;;;;11.73;7.75;;;5.60;99.90;;;;;;5200978;27;20091;-90
2020/12/20 12:36:26;;;;;;;12.48;8.27;;;5.60;99.90;;;;;;5245317;27;20085;-90
2020/12/20 12:39:23;;;;;;;13.65;7.85;;;5.60;99.90;;;;;;5251538;27;20097;-91
2020/12/20 12:42:05;;;;;;;12.80;7.50;;;5.60;99.90;;;;;;5196248;27;20142;-90
2020/12/20 12:44:59;;;;;;;11.90;6.90;;;5.60;99.90;;;;;;5191315;27;20086;-91
2020/12/20 12:47:38;;;;;;;12.32;7.32;;;5.60;99.90;;;;;;5240035;27;20141;-91
2020/12/20 12:50:36;;;;;;;15.27;8.82;;;5.60;99.90;;;;;;5187280;27;20419;-91
2020/12/20 12:53:15;;;;;;;12.63;7.45;;;5.60;99.90;;;;;;5163472;27;20098;-90
2020/12/20 12:56:11;;;;;;;10.40;6.82;;;5.60;99.90;;;;;;5191102;27;20670;-90
2020/12/20 12:58:52;;;;;;;9.60;5.30;;;5.50;99.90;;;;;;5200821;27;20166;-90
2020/12/20 13:01:49;;;;;;;8.82;5.03;;;5.50;99.90;;;;;;5207691;27;20086;-90
2020/12/20 13:04:28;;;;;;;9.63;4.60;;;5.50;99.90;;;;;;5169552;27;20097;-90
2020/12/20 13:07:32;;;;;;;7.97;5.18;;;5.40;99.90;;;;;;5173201;27;20083;-90
2020/12/20 13:10:11;;;;;;;8.90;5.18;;;5.40;99.90;;;;;;5221566;27;20090;-91
2020/12/20 13:13:05;;;;;;;7.82;4.85;;;5.30;99.90;;;;;;5202537;27;20108;-91
2020/12/20 13:15:50;;;;;;;7.12;5.10;;;5.30;99.90;;;;;;5202727;27;20118;-90
2020/12/20 13:19:16;;;;;;;8.45;5.45;;;5.30;99.90;;;;;;5229074;27;20090;-90
2020/12/20 13:21:57;;;;;;;6.87;4.90;;;5.20;99.90;;;;;;5166570;27;20179;-91
2020/12/20 13:24:50;;;;;;;7.93;5.22;;;5.20;99.90;;;;;;5199786;27;20094;-91
2020/12/20 13:27:32;;;;;;;8.00;5.87;;;5.20;99.90;;;;;;5195456;27;20179;-92
2020/12/20 13:30:26;;;;;;;8.00;5.22;;;5.20;99.90;;;;;;5203564;27;20094;-90
2020/12/20 13:32:53;;;;;;;8.95;5.60;;;5.20;99.90;;;;;;5222137;27;20091;-90
2020/12/20 13:35:48;;;;;;;7.10;4.78;;;5.20;99.90;;;;;;5225133;27;20093;-91
2020/12/20 13:38:29;;;;;;;10.30;5.12;;;5.00;99.90;;;;;;5189765;27;20098;-91
2020/12/20 13:41:23;;;;;;;10.25;5.60;;;5.00;99.90;;;;;;5203007;27;20169;-90
2020/12/20 13:44:02;;;;;;;12.40;6.43;;;4.90;99.90;;;;;;5184274;27;20158;-91
2020/12/20 13:46:56;;;;;;;9.68;5.93;;;4.90;99.90;;;;;;5229057;27;20101;-91
2020/12/20 13:49:35;;;;;;;10.00;5.70;;;4.90;99.90;;;;;;5184599;27;20105;-91
2020/12/20 13:52:29;;;;;;;9.35;5.40;;;4.80;99.90;;;;;;5161068;27;20117;-90
2020/12/20 13:55:07;;;;;;;9.10;5.87;;;4.80;99.90;;;;;;5200472;27;20090;-91
2020/12/20 13:58:00;;;;;;;9.68;5.07;;;4.80;99.90;;;;;;5209481;27;20085;-91
2020/12/20 14:00:44;;;;;;;8.80;5.95;;;4.70;99.90;;;;;;5244245;27;20086;-91
2020/12/20 14:03:37;;;;;;;10.18;6.32;;;4.70;99.90;;;;;;5239250;27;20090;-90
2020/12/20 14:06:28;;;;;;;8.32;5.12;;;4.60;99.90;;;;;;5222681;27;20090;-91
2020/12/20 14:09:22;;;;;;;9.80;6.32;;;4.60;99.90;;;;;;5230288;27;20081;-91
2020/12/20 14:12:02;;;;;;;7.70;5.45;;;4.60;99.90;;;;;;5229265;27;20105;-90
2020/12/20 14:15:01;;;;;;;14.77;5.82;;;4.50;99.90;;;;;;5226840;27;20143;-91
2020/12/20 14:17:44;;;;;;;11.77;7.03;;;4.40;99.90;;;;;;5192383;27;20098;-91
2020/12/20 14:20:38;;;;;;;9.77;6.22;;;4.40;99.90;;;;;;5176923;27;20105;-91
2020/12/20 14:23:17;;;;;;;12.23;6.35;;;4.30;99.90;;;;;;5181767;27;20090;-90
2020/12/20 14:26:15;;;;;;;11.57;6.20;;;4.30;99.90;;;;;;5230516;27;20173;-91
2020/12/20 14:28:54;;;;;;;16.55;7.18;;;4.30;99.90;;;;;;5199453;27;20094;-91
2020/12/20 14:31:45;;;;;;;9.93;6.35;;;4.20;99.90;;;;;;5186380;27;20110;-91
2020/12/20 14:34:25;;;;;;;11.35;6.80;;;4.10;99.90;;;;;;5256473;27;20141;-93
2020/12/20 14:37:16;;;;;;;12.52;7.28;;;4.20;99.90;;;;;;5215997;27;20102;-92
2020/12/20 14:39:55;;;;;;;19.83;12.00;;;4.10;99.90;;;;;;5193273;27;20478;-91
2020/12/20 14:42:49;;;;;;;17.17;10.50;;;4.10;99.90;;;;;;5210008;27;20090;-91
2020/12/20 14:45:30;;;;;;;12.88;7.25;;;4.00;99.90;;;;;;5214198;27;20162;-91
2020/12/20 14:48:24;;;;;;;10.57;6.20;;;4.00;99.90;;;;;;5186556;27;20086;-92
2020/12/20 14:51:06;;;;;;;12.20;7.35;;;4.00;99.90;;;;;;5222121;27;20438;-92